Time;durP1;ratioP1;P1;durP2;ratioP2;P2;SDS_P1;SDS_P2;PMS_P1;PMS_P2;Temp;Humidity;BMP_temperature;BMP_pressure;BME280_temperature;BME280_humidity;BME280_pressure;Samples;Min_cycle;Max_cycle;Signal;HPM_P1;HPM_P2
2021/04/19 00:02:25;;;;;;;15.13;10.77;;;9.20;77.50;;;;;;5077454;28;20036;-77
2021/04/19 00:04:50;;;;;;;15.00;10.30;;;9.10;77.20;;;;;;5076671;28;20039;-77
2021/04/19 00:07:17;;;;;;;13.60;10.57;;;9.10;77.20;;;;;;5077060;28;20028;-77
2021/04/19 00:09:43;;;;;;;15.88;10.70;;;9.00;77.20;;;;;;5076946;28;20503;-77
2021/04/19 00:12:09;;;;;;;14.32;9.65;;;8.90;77.40;;;;;;5076856;28;20028;-77
2021/04/19 00:14:35;;;;;;;14.55;10.07;;;8.90;77.70;;;;;;5076698;28;20032;-77
2021/04/19 00:17:01;;;;;;;14.45;10.43;;;8.90;77.90;;;;;;5076794;28;20446;-77
2021/04/19 00:19:26;;;;;;;14.27;10.48;;;8.90;78.10;;;;;;5075510;28;20143;-77
2021/04/19 00:21:53;;;;;;;12.80;9.10;;;9.00;78.10;;;;;;5076888;28;20087;-77
2021/04/19 00:24:19;;;;;;;15.82;11.20;;;9.00;77.80;;;;;;5076798;28;20044;-77
2021/04/19 00:26:45;;;;;;;14.73;10.32;;;8.90;77.50;;;;;;5076464;28;20544;-77
2021/04/19 00:29:10;;;;;;;13.40;10.30;;;8.90;77.40;;;;;;5076307;28;20163;-76
2021/04/19 00:31:36;;;;;;;16.65;10.95;;;8.80;77.40;;;;;;5077186;28;20055;-77
2021/04/19 00:34:02;;;;;;;14.25;10.02;;;8.70;77.50;;;;;;5076698;28;20463;-77
2021/04/19 00:36:29;;;;;;;15.57;9.60;;;8.70;77.70;;;;;;5075544;28;20028;-77
2021/04/19 00:38:55;;;;;;;15.20;9.98;;;8.60;77.90;;;;;;5075145;28;20033;-77
2021/04/19 00:41:21;;;;;;;15.30;10.88;;;8.60;78.00;;;;;;5076359;28;20024;-77
2021/04/19 00:43:47;;;;;;;12.85;9.35;;;8.50;78.20;;;;;;5076350;28;20021;-77
2021/04/19 00:46:13;;;;;;;13.38;9.57;;;8.60;78.40;;;;;;5074941;28;20062;-78
2021/04/19 00:48:39;;;;;;;14.18;9.80;;;8.50;78.40;;;;;;5075947;28;20029;-78
2021/04/19 00:51:05;;;;;;;17.20;10.48;;;8.50;78.60;;;;;;5075026;28;20024;-78
2021/04/19 00:53:32;;;;;;;12.73;9.20;;;8.50;78.70;;;;;;5075987;28;20028;-78
2021/04/19 00:55:57;;;;;;;13.85;9.65;;;8.40;78.50;;;;;;5076149;28;20072;-78
2021/04/19 00:58:29;;;;;;;13.82;9.05;;;8.40;78.50;;;;;;5076416;28;20036;-78
2021/04/19 01:00:55;;;;;;;13.82;9.18;;;8.30;78.50;;;;;;5076341;28;20020;-78
2021/04/19 01:03:22;;;;;;;29.92;10.65;;;8.30;78.50;;;;;;5076086;28;20024;-78
2021/04/19 01:05:49;;;;;;;13.05;8.27;;;8.20;78.40;;;;;;5075700;28;20028;-78
2021/04/19 01:08:15;;;;;;;18.58;10.48;;;8.20;78.50;;;;;;5076130;28;20036;-78
2021/04/19 01:10:41;;;;;;;15.25;10.07;;;8.10;78.70;;;;;;5076100;28;20080;-77
2021/04/19 01:13:07;;;;;;;12.88;9.90;;;8.00;78.90;;;;;;5075960;28;20536;-77
2021/04/19 01:15:34;;;;;;;12.50;8.82;;;8.00;78.90;;;;;;5074689;28;20033;-77
2021/04/19 01:18:00;;;;;;;13.52;8.48;;;7.90;79.00;;;;;;5076394;28;20031;-77
2021/04/19 01:20:28;;;;;;;15.68;9.10;;;7.90;79.20;;;;;;5076501;28;20040;-77
2021/04/19 01:22:54;;;;;;;14.68;9.20;;;7.90;79.30;;;;;;5075068;28;20039;-77
2021/04/19 01:25:25;;;;;;;13.77;9.32;;;7.80;79.40;;;;;;5075891;28;20385;-77
2021/04/19 01:27:52;;;;;;;12.60;8.30;;;7.80;79.60;;;;;;5074260;28;20070;-78
2021/04/19 01:30:21;;;;;;;13.98;8.65;;;7.80;79.60;;;;;;5074628;28;20048;-78
2021/04/19 01:32:47;;;;;;;14.95;8.45;;;7.80;79.60;;;;;;5074549;28;20032;-78
2021/04/19 01:35:14;;;;;;;13.88;8.98;;;7.80;79.80;;;;;;5074275;28;20024;-77
2021/04/19 01:37:40;;;;;;;14.63;8.93;;;7.80;79.80;;;;;;5074249;28;20423;-77
2021/04/19 01:40:08;;;;;;;14.07;9.20;;;7.80;79.90;;;;;;5074048;28;20482;-77
2021/04/19 01:42:34;;;;;;;13.38;8.68;;;7.80;80.00;;;;;;5071992;28;20032;-78
2021/04/19 01:45:00;;;;;;;14.00;8.52;;;7.80;80.00;;;;;;5074003;28;20024;-78
2021/04/19 01:47:26;;;;;;;13.65;8.07;;;7.70;79.90;;;;;;5073078;28;20109;-78
2021/04/19 01:49:52;;;;;;;12.95;8.88;;;7.70;80.00;;;;;;5075230;28;20107;-79
2021/04/19 01:52:19;;;;;;;12.50;7.82;;;7.70;80.00;;;;;;5074916;28;20028;-77
2021/04/19 01:54:46;;;;;;;12.75;8.20;;;7.70;80.00;;;;;;5075171;28;20036;-78
2021/04/19 01:57:11;;;;;;;12.40;8.13;;;7.70;80.00;;;;;;5075617;28;20457;-78
2021/04/19 01:59:39;;;;;;;12.45;8.10;;;7.70;80.00;;;;;;5075391;28;20020;-78
2021/04/19 02:02:29;;;;;;;13.23;8.27;;;7.70;80.00;;;;;;5075314;28;20111;-78
2021/04/19 02:05:14;;;;;;;11.43;7.25;;;7.60;80.00;;;;;;5074082;28;20043;-77
2021/04/19 02:07:52;;;;;;;13.27;7.90;;;7.60;80.00;;;;;;5075233;28;20166;-77
2021/04/19 02:10:35;;;;;;;12.15;8.18;;;7.60;80.00;;;;;;5074808;28;20024;-78
2021/04/19 02:13:24;;;;;;;11.98;7.85;;;7.60;80.00;;;;;;5074674;28;20505;-77
2021/04/19 02:15:59;;;;;;;11.93;8.35;;;7.60;80.00;;;;;;5074836;28;20025;-77
2021/04/19 02:18:58;;;;;;;11.93;8.00;;;7.60;80.00;;;;;;5074912;28;20482;-77
2021/04/19 02:21:35;;;;;;;13.23;8.57;;;7.60;80.00;;;;;;5075232;28;20505;-77
2021/04/19 02:24:06;;;;;;;12.32;8.05;;;7.50;79.80;;;;;;5074787;28;20434;-77
2021/04/19 02:26:35;;;;;;;12.20;8.13;;;7.50;79.80;;;;;;5074576;28;20081;-77
2021/04/19 02:29:07;;;;;;;12.88;8.15;;;7.50;79.80;;;;;;5074671;28;20425;-77
2021/04/19 02:31:37;;;;;;;12.05;8.68;;;7.50;79.90;;;;;;5073430;28;20378;-78
2021/04/19 02:34:07;;;;;;;11.98;7.95;;;7.40;79.90;;;;;;5072912;28;20111;-77
2021/04/19 02:36:33;;;;;;;12.30;8.07;;;7.40;80.00;;;;;;5056796;28;20465;-77
2021/04/19 02:39:00;;;;;;;14.00;8.75;;;7.40;80.10;;;;;;5073578;28;20025;-77
2021/04/19 02:41:28;;;;;;;12.43;8.05;;;7.40;80.00;;;;;;5074470;28;20021;-77
2021/04/19 02:43:55;;;;;;;14.30;8.63;;;7.30;80.00;;;;;;5072882;28;20050;-77
2021/04/19 02:46:21;;;;;;;17.10;10.55;;;7.30;80.00;;;;;;5074111;28;20028;-77
2021/04/19 02:48:48;;;;;;;16.10;9.45;;;7.30;80.10;;;;;;5074148;28;20107;-78
2021/04/19 02:51:14;;;;;;;14.05;8.52;;;7.30;80.20;;;;;;5074195;28;20024;-78
2021/04/19 02:53:42;;;;;;;15.00;9.18;;;7.30;80.30;;;;;;5074074;28;20417;-77
2021/04/19 02:56:09;;;;;;;13.20;8.95;;;7.20;80.30;;;;;;5073872;28;20024;-78
2021/04/19 02:58:45;;;;;;;14.77;9.07;;;7.30;80.60;;;;;;5074348;28;20028;-77
2021/04/19 03:01:25;;;;;;;13.32;8.60;;;7.30;80.80;;;;;;5074330;28;20025;-76
2021/04/19 03:03:53;;;;;;;14.40;9.07;;;7.30;80.90;;;;;;5074269;28;20082;-77
2021/04/19 03:06:20;;;;;;;14.02;8.93;;;7.40;80.90;;;;;;5073932;28;20059;-77
2021/04/19 03:08:51;;;;;;;12.20;8.45;;;7.40;80.80;;;;;;5074706;28;20028;-78
2021/04/19 03:11:56;;;;;;;11.90;7.68;;;7.60;80.90;;;;;;5074237;28;20024;-78
2021/04/19 03:14:27;;;;;;;12.98;8.30;;;7.60;81.00;;;;;;5073979;28;20123;-78
2021/04/19 03:17:02;;;;;;;12.00;7.63;;;7.80;80.90;;;;;;5074025;28;20166;-78
2021/04/19 03:19:30;;;;;;;11.52;8.07;;;7.80;80.70;;;;;;5073639;28;20533;-77
2021/04/19 03:21:58;;;;;;;11.90;8.23;;;8.00;80.40;;;;;;5074257;28;20020;-77
2021/04/19 03:24:26;;;;;;;13.85;8.95;;;8.00;80.10;;;;;;5074068;28;20024;-78
2021/04/19 03:26:52;;;;;;;13.13;8.60;;;8.10;80.60;;;;;;5073191;28;20078;-77
2021/04/19 03:29:19;;;;;;;12.70;8.43;;;8.20;79.90;;;;;;5073354;28;20024;-79
2021/04/19 03:31:57;;;;;;;10.98;8.02;;;8.30;79.70;;;;;;5073676;28;20032;-77
2021/04/19 03:34:29;;;;;;;13.93;9.02;;;8.30;79.50;;;;;;5073519;28;20389;-78
2021/04/19 03:37:03;;;;;;;14.07;8.95;;;8.40;79.30;;;;;;5073053;28;20037;-78
2021/04/19 03:39:30;;;;;;;12.57;9.18;;;8.40;79.00;;;;;;5073782;28;20429;-77
2021/04/19 03:41:58;;;;;;;14.68;9.02;;;8.50;78.70;;;;;;5056775;28;20029;-78
2021/04/19 03:44:27;;;;;;;12.77;8.73;;;8.50;78.40;;;;;;5052788;28;20489;-77
2021/04/19 03:46:56;;;;;;;13.80;8.85;;;8.50;78.30;;;;;;5053126;28;20029;-79
2021/04/19 03:49:29;;;;;;;13.23;8.63;;;8.50;78.20;;;;;;5051991;28;20414;-82
2021/04/19 03:51:58;;;;;;;12.98;8.73;;;8.60;78.30;;;;;;5053290;28;20025;-83
2021/04/19 03:54:28;;;;;;;13.70;9.43;;;8.70;78.40;;;;;;5053334;28;20056;-82
2021/04/19 03:56:55;;;;;;;14.57;9.27;;;8.70;78.30;;;;;;5053242;28;20514;-82
2021/04/19 03:59:24;;;;;;;13.75;8.63;;;8.80;78.10;;;;;;5051554;28;20060;-82
2021/04/19 04:01:51;;;;;;;12.32;8.77;;;8.90;77.90;;;;;;5064944;28;20115;-83
2021/04/19 04:04:18;;;;;;;13.95;9.15;;;9.00;77.50;;;;;;5072977;28;20024;-81
2021/04/19 04:06:45;;;;;;;10.50;7.85;;;9.00;77.20;;;;;;5072738;28;20101;-82
2021/04/19 04:09:14;;;;;;;11.52;8.38;;;9.10;77.10;;;;;;5072690;28;20025;-79
2021/04/19 04:11:41;;;;;;;14.38;9.48;;;9.10;77.00;;;;;;5072898;28;20112;-79
2021/04/19 04:14:07;;;;;;;12.85;9.00;;;9.20;76.90;;;;;;5072972;28;20020;-79
2021/04/19 04:16:32;;;;;;;11.30;7.72;;;9.30;76.80;;;;;;5072508;28;20437;-79
2021/04/19 04:18:58;;;;;;;11.57;8.35;;;9.30;76.80;;;;;;5072514;28;20041;-79
2021/04/19 04:21:26;;;;;;;14.23;8.82;;;9.40;76.70;;;;;;5072820;28;20119;-78
2021/04/19 04:23:53;;;;;;;13.27;8.77;;;9.50;76.50;;;;;;5073131;28;20025;-78
2021/04/19 04:26:19;;;;;;;12.40;9.00;;;9.70;76.50;;;;;;5073408;28;20033;-78
2021/04/19 04:28:45;;;;;;;13.45;8.77;;;9.80;76.10;;;;;;5071775;28;20040;-83
2021/04/19 04:31:11;;;;;;;13.38;8.40;;;9.90;75.80;;;;;;5091294;28;20020;-81
2021/04/19 04:33:37;;;;;;;13.63;9.18;;;10.00;75.50;;;;;;5080887;28;20043;-80
2021/04/19 04:36:03;;;;;;;15.00;9.15;;;10.10;75.30;;;;;;5073079;28;20020;-79
2021/04/19 04:38:29;;;;;;;11.68;8.68;;;10.30;75.00;;;;;;5073637;28;20093;-80
2021/04/19 04:40:54;;;;;;;13.10;8.70;;;10.40;74.50;;;;;;5075017;28;20542;-79
2021/04/19 04:43:25;;;;;;;12.32;8.98;;;10.50;74.00;;;;;;5076296;28;20029;-81
2021/04/19 04:45:55;;;;;;;13.27;8.85;;;10.60;73.30;;;;;;5076081;28;20040;-81
2021/04/19 04:48:58;;;;;;;12.27;8.60;;;10.60;72.80;;;;;;5075951;28;20025;-81
2021/04/19 04:51:26;;;;;;;12.20;8.82;;;10.50;72.20;;;;;;5056055;28;20044;-81
2021/04/19 04:54:01;;;;;;;11.30;8.48;;;10.50;72.20;;;;;;5056396;28;20021;-80
2021/04/19 04:56:31;;;;;;;12.80;8.90;;;10.50;72.10;;;;;;5056344;28;20032;-81
2021/04/19 04:58:58;;;;;;;12.90;9.10;;;10.50;72.10;;;;;;5056271;28;20044;-82
2021/04/19 05:01:27;;;;;;;13.60;9.15;;;10.60;72.00;;;;;;5055066;28;20360;-80
2021/04/19 05:03:53;;;;;;;12.98;8.25;;;10.60;71.90;;;;;;5056215;28;20025;-80
2021/04/19 05:06:19;;;;;;;14.68;9.23;;;10.70;71.70;;;;;;5055958;28;20095;-82
2021/04/19 05:08:47;;;;;;;12.30;9.00;;;10.70;71.60;;;;;;5056000;28;20108;-81
2021/04/19 05:11:14;;;;;;;10.52;8.20;;;10.80;71.40;;;;;;5062427;28;20029;-81
2021/04/19 05:13:40;;;;;;;12.50;8.93;;;10.80;71.20;;;;;;5075753;28;20052;-81
2021/04/19 05:16:06;;;;;;;13.68;9.27;;;10.90;70.90;;;;;;5075595;28;20086;-80
2021/04/19 05:18:32;;;;;;;14.63;9.68;;;11.00;70.70;;;;;;5070909;28;20085;-80
2021/04/19 05:20:58;;;;;;;12.95;9.32;;;11.10;70.60;;;;;;5076031;28;20028;-81
2021/04/19 05:23:25;;;;;;;16.38;10.50;;;11.20;70.30;;;;;;5075191;28;20044;-79
2021/04/19 05:25:51;;;;;;;12.75;8.65;;;11.30;70.20;;;;;;5075164;28;20028;-81
2021/04/19 05:28:20;;;;;;;11.70;8.30;;;11.40;70.00;;;;;;5074920;28;20032;-81
2021/04/19 05:30:48;;;;;;;11.23;8.57;;;11.50;69.70;;;;;;5074957;28;20029;-81
2021/04/19 05:33:16;;;;;;;10.57;8.15;;;11.60;69.20;;;;;;5075435;28;20145;-81
2021/04/19 05:35:43;;;;;;;10.57;8.45;;;11.60;68.80;;;;;;5074864;28;20029;-81
2021/04/19 05:38:09;;;;;;;10.93;8.60;;;11.70;68.70;;;;;;5075122;28;20048;-81
2021/04/19 05:40:36;;;;;;;12.50;8.40;;;11.80;68.30;;;;;;5075000;28;20468;-81
2021/04/19 05:43:06;;;;;;;12.88;8.85;;;11.80;68.10;;;;;;5074634;28;20382;-81
2021/04/19 05:45:34;;;;;;;12.20;8.23;;;11.90;67.80;;;;;;5074894;28;20367;-82
2021/04/19 05:48:00;;;;;;;11.23;8.15;;;11.90;67.60;;;;;;5074717;28;20024;-81
2021/04/19 05:50:27;;;;;;;10.60;8.27;;;12.00;67.50;;;;;;5074457;28;20047;-81
2021/04/19 05:52:54;;;;;;;12.70;8.68;;;12.00;67.20;;;;;;5075232;28;20459;-80
2021/04/19 05:55:25;;;;;;;11.73;8.25;;;12.10;67.10;;;;;;5074877;28;20032;-80
2021/04/19 05:58:01;;;;;;;10.07;7.80;;;12.10;67.00;;;;;;5075367;28;20024;-81
2021/04/19 06:00:35;;;;;;;10.88;8.15;;;12.20;66.90;;;;;;5075689;28;20056;-82
2021/04/19 06:03:17;;;;;;;11.00;7.53;;;12.30;66.60;;;;;;5074576;28;20105;-81
2021/04/19 06:06:02;;;;;;;11.50;8.95;;;12.40;66.30;;;;;;5074971;28;20036;-82
2021/04/19 06:08:38;;;;;;;11.10;9.00;;;12.40;66.00;;;;;;5071668;28;20052;-82
2021/04/19 06:11:29;;;;;;;10.73;8.20;;;12.50;65.90;;;;;;5074856;28;20363;-82
2021/04/19 06:13:56;;;;;;;10.80;8.07;;;12.60;65.60;;;;;;5075009;28;20028;-81
2021/04/19 06:16:24;;;;;;;11.20;8.95;;;12.70;65.40;;;;;;5074543;28;20037;-82
2021/04/19 06:18:50;;;;;;;10.18;8.07;;;12.80;65.20;;;;;;5074812;28;20055;-81
2021/04/19 06:21:17;;;;;;;11.48;9.55;;;12.90;65.50;;;;;;5074360;28;20035;-80
2021/04/19 06:23:42;;;;;;;11.20;8.70;;;13.00;64.50;;;;;;5074412;28;20029;-81
2021/04/19 06:26:09;;;;;;;12.45;8.65;;;13.00;64.00;;;;;;5074509;28;20098;-81
2021/04/19 06:28:37;;;;;;;11.50;8.65;;;13.00;63.80;;;;;;5074671;28;20123;-81
2021/04/19 06:31:05;;;;;;;11.55;9.02;;;13.00;63.70;;;;;;5074538;28;20033;-82
2021/04/19 06:33:33;;;;;;;10.45;8.52;;;13.00;63.70;;;;;;5074154;28;20024;-82
2021/04/19 06:35:58;;;;;;;10.75;8.55;;;13.00;63.60;;;;;;5074664;28;20451;-81
2021/04/19 06:38:24;;;;;;;11.07;8.65;;;13.10;63.60;;;;;;5074001;28;20085;-81
2021/04/19 06:40:50;;;;;;;13.73;9.05;;;13.20;64.00;;;;;;5073510;28;20052;-81
2021/04/19 06:43:17;;;;;;;12.32;8.95;;;13.20;63.30;;;;;;5074118;28;20020;-80
2021/04/19 06:45:44;;;;;;;13.52;9.82;;;13.30;63.30;;;;;;5074218;28;20111;-80
2021/04/19 06:48:11;;;;;;;13.45;9.52;;;13.30;63.00;;;;;;5074183;28;20035;-82
2021/04/19 06:50:38;;;;;;;14.50;10.18;;;13.40;62.80;;;;;;5073488;28;20366;-82
2021/04/19 06:53:04;;;;;;;10.93;8.63;;;13.50;62.80;;;;;;5073174;28;20029;-81
2021/04/19 06:55:30;;;;;;;13.73;8.68;;;13.50;62.50;;;;;;5072101;28;20042;-81
2021/04/19 06:57:58;;;;;;;15.35;10.95;;;13.60;62.40;;;;;;5072223;28;20032;-81
2021/04/19 07:00:26;;;;;;;16.05;10.52;;;13.70;62.20;;;;;;5073421;28;20103;-81
2021/04/19 07:02:57;;;;;;;11.43;9.40;;;13.80;62.00;;;;;;5076880;28;20032;-81
2021/04/19 07:05:26;;;;;;;11.13;8.95;;;13.90;61.50;;;;;;5080166;28;20032;-81
2021/04/19 07:08:21;;;;;;;12.15;9.45;;;13.90;61.50;;;;;;5073455;28;20059;-81
2021/04/19 07:10:49;;;;;;;19.42;10.38;;;13.90;61.20;;;;;;5057842;28;20078;-81
2021/04/19 07:13:16;;;;;;;11.80;9.63;;;13.90;61.20;;;;;;5072934;28;20020;-81
2021/04/19 07:15:46;;;;;;;12.23;9.73;;;13.90;61.00;;;;;;5072478;28;20037;-81
2021/04/19 07:18:14;;;;;;;11.73;8.60;;;13.90;61.00;;;;;;5073389;28;20351;-82
2021/04/19 07:20:39;;;;;;;10.88;9.05;;;13.90;61.00;;;;;;5070074;28;20045;-82
2021/04/19 07:23:05;;;;;;;11.88;9.27;;;13.90;60.90;;;;;;5072669;28;20381;-81
2021/04/19 07:25:32;;;;;;;14.68;9.98;;;14.00;60.90;;;;;;5072054;28;20020;-80
2021/04/19 07:28:04;;;;;;;9.60;8.52;;;14.00;60.60;;;;;;5072058;28;20029;-82
2021/04/19 07:30:30;;;;;;;10.85;8.95;;;14.10;60.30;;;;;;5072220;28;20024;-81
2021/04/19 07:32:56;;;;;;;10.93;9.20;;;14.10;60.20;;;;;;5071085;28;20027;-81
2021/04/19 07:35:29;;;;;;;10.68;9.00;;;14.20;59.90;;;;;;5072505;28;20029;-82
2021/04/19 07:38:13;;;;;;;13.25;9.38;;;14.20;59.70;;;;;;5072092;28;20025;-82
2021/04/19 07:40:40;;;;;;;11.52;8.35;;;14.30;59.50;;;;;;5071913;28;20017;-82
2021/04/19 07:43:20;;;;;;;10.40;8.63;;;14.50;59.70;;;;;;5071330;28;20112;-82
2021/04/19 07:46:16;;;;;;;11.18;8.13;;;14.60;59.50;;;;;;5070786;28;20124;-81
2021/04/19 07:48:45;;;;;;;;;;;14.80;59.10;;;;;;5071027;28;20032;-81
2021/04/19 07:51:31;;;;;;;10.02;8.57;;;14.90;59.40;;;;;;5072195;28;19904;-82
2021/04/19 07:54:15;;;;;;;12.13;9.00;;;15.20;58.50;;;;;;5071736;28;20355;-81
2021/04/19 07:56:53;;;;;;;11.60;9.10;;;15.40;58.00;;;;;;5069172;28;20378;-82
2021/04/19 07:59:32;;;;;;;9.35;8.00;;;15.60;57.60;;;;;;5072322;28;20023;-80
2021/04/19 08:02:04;;;;;;;10.88;9.20;;;15.80;57.20;;;;;;5070697;28;20044;-81
2021/04/19 08:04:31;;;;;;;12.68;9.52;;;16.20;56.70;;;;;;5072384;28;20082;-82
2021/04/19 08:06:57;;;;;;;14.25;9.30;;;16.40;56.50;;;;;;5071941;28;20036;-81
2021/04/19 08:09:31;;;;;;;9.65;8.48;;;16.70;55.90;;;;;;5072017;28;20162;-80
2021/04/19 08:12:09;;;;;;;11.38;9.20;;;17.00;55.40;;;;;;5071525;28;20470;-82
2021/04/19 08:14:51;;;;;;;9.10;8.10;;;17.40;54.50;;;;;;5076124;28;20380;-82
2021/04/19 08:17:16;;;;;;;9.82;8.77;;;17.70;53.50;;;;;;5055711;28;20040;-81
2021/04/19 08:19:42;;;;;;;10.82;8.20;;;18.00;53.30;;;;;;5056811;28;20049;-83
2021/04/19 08:22:16;;;;;;;9.18;7.65;;;18.30;52.60;;;;;;5061135;28;20066;-81
2021/04/19 08:24:42;;;;;;;11.63;7.95;;;18.50;51.70;;;;;;5074996;28;20029;-81
2021/04/19 08:27:08;;;;;;;8.93;7.93;;;18.80;51.50;;;;;;5075651;28;20055;-81
2021/04/19 08:29:45;;;;;;;8.77;7.10;;;19.00;51.10;;;;;;5075870;28;20029;-81
2021/04/19 08:32:13;;;;;;;9.43;7.28;;;19.30;50.20;;;;;;5074983;28;20025;-82
2021/04/19 08:34:40;;;;;;;8.93;7.68;;;19.50;49.40;;;;;;5075602;28;20378;-81
2021/04/19 08:37:09;;;;;;;8.88;7.60;;;19.70;49.40;;;;;;5074889;28;20140;-81
2021/04/19 08:39:35;;;;;;;8.35;7.47;;;19.90;49.00;;;;;;5073121;28;20082;-82
2021/04/19 08:42:03;;;;;;;12.10;7.95;;;20.00;48.30;;;;;;5073767;28;20031;-81
2021/04/19 08:44:34;;;;;;;11.55;7.80;;;20.30;48.60;;;;;;5075330;28;20470;-82
2021/04/19 08:47:01;;;;;;;10.57;8.07;;;21.00;47.90;;;;;;5076529;28;20029;-82
2021/04/19 08:49:28;;;;;;;9.73;7.90;;;21.80;47.50;;;;;;5076702;28;20029;-82
2021/04/19 08:51:54;;;;;;;11.43;7.70;;;22.40;46.70;;;;;;5077146;28;20027;-82
2021/04/19 08:54:24;;;;;;;8.65;7.75;;;22.70;45.30;;;;;;5076605;28;20025;-81
2021/04/19 08:56:51;;;;;;;7.47;6.78;;;23.10;45.20;;;;;;5076795;28;20032;-81
2021/04/19 08:59:19;;;;;;;11.10;7.15;;;24.00;44.30;;;;;;5076613;28;20036;-82
2021/04/19 09:01:46;;;;;;;7.90;6.90;;;24.80;43.10;;;;;;5076656;28;20029;-82
2021/04/19 09:04:12;;;;;;;7.47;6.78;;;25.10;41.70;;;;;;5075613;28;20478;-82
2021/04/19 09:06:46;;;;;;;7.82;6.00;;;24.70;40.80;;;;;;5075507;28;20051;-81
2021/04/19 09:09:34;;;;;;;6.15;5.05;;;25.00;40.60;;;;;;5075643;28;20036;-83
2021/04/19 09:12:22;;;;;;;7.00;4.57;;;26.00;40.30;;;;;;5076237;28;20100;-80
2021/04/19 09:14:49;;;;;;;8.23;4.82;;;27.20;38.90;;;;;;5076043;28;20028;-81
2021/04/19 09:17:27;;;;;;;4.90;4.47;;;27.90;38.40;;;;;;5075776;28;20035;-81
2021/04/19 09:19:57;;;;;;;5.07;4.60;;;28.60;36.80;;;;;;5075043;28;20059;-82
2021/04/19 09:22:23;;;;;;;4.75;3.75;;;29.50;36.30;;;;;;5075784;28;20465;-82
2021/04/19 09:25:05;;;;;;;4.70;4.30;;;30.20;36.20;;;;;;5074674;28;20462;-81
2021/04/19 09:27:46;;;;;;;4.82;4.43;;;30.90;34.40;;;;;;5075841;28;20032;-81
2021/04/19 09:30:34;;;;;;;12.27;5.68;;;31.00;33.40;;;;;;5074993;28;20028;-81
2021/04/19 09:33:02;;;;;;;4.55;4.15;;;30.90;33.40;;;;;;5075623;28;20036;-81
2021/04/19 09:35:52;;;;;;;6.00;4.97;;;31.10;33.20;;;;;;5075313;28;20093;-80
2021/04/19 09:38:33;;;;;;;5.18;4.30;;;31.70;32.90;;;;;;5085012;28;20097;-81
2021/04/19 09:40:59;;;;;;;5.50;4.88;;;32.30;32.40;;;;;;5086914;28;20421;-82
2021/04/19 09:43:30;;;;;;;4.25;3.85;;;32.60;32.20;;;;;;5077145;28;20036;-81
2021/04/19 09:46:06;;;;;;;5.10;3.95;;;33.10;31.50;;;;;;5075054;28;20588;-80
2021/04/19 09:48:33;;;;;;;4.90;3.85;;;33.40;30.60;;;;;;5074291;28;20024;-82
2021/04/19 09:51:02;;;;;;;7.57;3.67;;;33.60;30.80;;;;;;5074908;28;20438;-80
2021/04/19 09:53:30;;;;;;;4.10;3.80;;;34.00;30.20;;;;;;5074981;28;20047;-81
2021/04/19 09:55:57;;;;;;;4.72;3.97;;;33.60;29.80;;;;;;5073097;28;20021;-82
2021/04/19 09:58:23;;;;;;;9.63;4.63;;;33.30;29.80;;;;;;5074432;28;20421;-81
2021/04/19 10:01:00;;;;;;;6.95;4.00;;;33.50;29.90;;;;;;5074718;28;20047;-82
2021/04/19 10:03:29;;;;;;;7.65;4.03;;;34.00;29.60;;;;;;5076261;28;20025;-81
2021/04/19 10:05:58;;;;;;;4.57;3.60;;;34.60;29.60;;;;;;5074221;28;20032;-81
2021/04/19 10:08:25;;;;;;;6.72;3.80;;;35.00;29.20;;;;;;5073278;28;20033;-82
2021/04/19 10:10:56;;;;;;;4.95;3.95;;;35.30;29.10;;;;;;5073721;28;20016;-83
2021/04/19 10:13:37;;;;;;;4.20;3.80;;;35.60;28.60;;;;;;5073410;28;20028;-80
2021/04/19 10:16:09;;;;;;;4.80;3.97;;;35.10;28.10;;;;;;5070800;28;20470;-81
2021/04/19 10:18:41;;;;;;;6.33;4.67;;;34.10;28.70;;;;;;5073617;28;20020;-81
2021/04/19 10:21:08;;;;;;;3.92;3.63;;;33.20;28.50;;;;;;5071358;28;20028;-79
2021/04/19 10:23:41;;;;;;;4.15;3.78;;;33.30;28.90;;;;;;5073117;28;20363;-81
2021/04/19 10:26:07;;;;;;;3.93;3.63;;;34.00;28.90;;;;;;5069686;28;20454;-81
2021/04/19 10:28:35;;;;;;;12.07;4.93;;;34.20;28.70;;;;;;5073026;28;20450;-82
2021/04/19 10:31:19;;;;;;;10.48;4.05;;;33.60;28.20;;;;;;5073488;28;20020;-80
2021/04/19 10:33:49;;;;;;;11.10;4.82;;;32.70;28.20;;;;;;5070759;28;20024;-81
2021/04/19 10:36:35;;;;;;;13.48;5.00;;;31.70;28.30;;;;;;5072569;28;20028;-81
2021/04/19 10:39:11;;;;;;;11.77;3.95;;;30.60;28.60;;;;;;5072954;28;20023;-81
2021/04/19 10:41:37;;;;;;;5.05;4.20;;;29.50;29.10;;;;;;5072245;28;20028;-80
2021/04/19 10:44:04;;;;;;;7.05;4.30;;;28.90;29.40;;;;;;5070281;28;20401;-80
2021/04/19 10:46:32;;;;;;;5.60;3.80;;;28.50;29.70;;;;;;5072564;28;20032;-80
2021/04/19 10:49:00;;;;;;;4.85;3.90;;;28.20;30.00;;;;;;5072551;28;20029;-79
2021/04/19 10:51:29;;;;;;;4.47;4.07;;;28.20;30.30;;;;;;5072416;28;20028;-80
2021/04/19 10:53:56;;;;;;;6.57;4.68;;;28.10;30.30;;;;;;5073047;28;20025;-81
2021/04/19 10:56:25;;;;;;;4.50;4.10;;;27.90;30.40;;;;;;5072339;28;20032;-81
2021/04/19 10:59:15;;;;;;;4.20;3.80;;;27.80;30.60;;;;;;5072841;28;20023;-81
2021/04/19 11:01:43;;;;;;;4.45;3.88;;;27.90;30.60;;;;;;5071977;28;20028;-81
2021/04/19 11:04:10;;;;;;;4.10;3.67;;;27.90;30.60;;;;;;5072372;28;20029;-82
2021/04/19 11:06:39;;;;;;;6.82;4.05;;;28.40;30.70;;;;;;5073290;28;20032;-81
2021/04/19 11:09:07;;;;;;;4.25;3.85;;;29.40;30.40;;;;;;5073547;28;20052;-82
2021/04/19 11:11:41;;;;;;;4.50;4.10;;;30.40;30.10;;;;;;5073425;28;20104;-82
2021/04/19 11:14:11;;;;;;;4.72;4.00;;;31.00;29.60;;;;;;5073882;28;20017;-82
2021/04/19 11:16:47;;;;;;;4.20;3.83;;;30.80;29.30;;;;;;5073549;28;20391;-82
2021/04/19 11:19:36;;;;;;;5.60;3.63;;;30.20;29.20;;;;;;5072301;28;20448;-82
2021/04/19 11:22:28;;;;;;;9.50;4.35;;;29.50;29.30;;;;;;5072104;28;20021;-81
2021/04/19 11:25:09;;;;;;;5.40;4.15;;;28.70;29.60;;;;;;5073968;28;20058;-83
2021/04/19 11:27:35;;;;;;;6.80;4.10;;;28.20;29.80;;;;;;5073371;28;20393;-83
2021/04/19 11:30:01;;;;;;;13.55;4.20;;;27.60;30.00;;;;;;5073300;28;20167;-83
2021/04/19 11:32:35;;;;;;;4.25;3.85;;;27.00;30.40;;;;;;5072485;28;20033;-81
2021/04/19 11:35:02;;;;;;;4.22;3.83;;;26.50;30.80;;;;;;5071169;28;20021;-82
2021/04/19 11:37:32;;;;;;;5.32;4.43;;;26.10;31.00;;;;;;5072744;28;20432;-81
2021/04/19 11:39:59;;;;;;;5.75;3.97;;;25.70;31.40;;;;;;5071615;28;20048;-82
2021/04/19 11:42:33;;;;;;;4.88;3.83;;;25.40;31.70;;;;;;5073174;28;20493;-82
2021/04/19 11:44:58;;;;;;;;;;;25.10;32.00;;;;;;5070449;28;20141;-82
2021/04/19 11:47:25;;;;;;;8.30;4.60;;;25.10;32.40;;;;;;5072377;28;19913;-82
2021/04/19 11:49:52;;;;;;;5.85;4.45;;;25.30;32.40;;;;;;5076629;28;20103;-81
2021/04/19 11:52:18;;;;;;;4.10;3.70;;;25.50;32.50;;;;;;5075440;28;20020;-81
2021/04/19 12:00:31;;;;;;;10.27;4.60;;;28.20;31.30;;;;;;5075839;28;20015;-80
2021/04/19 12:02:57;;;;;;;7.20;4.10;;;28.70;30.80;;;;;;5076147;28;20529;-81
2021/04/19 12:05:23;;;;;;;12.73;4.43;;;28.90;30.40;;;;;;5077245;28;20116;-81
2021/04/19 12:07:48;;;;;;;13.30;4.70;;;29.00;30.10;;;;;;5076091;28;20031;-81
2021/04/19 12:10:14;;;;;;;7.32;4.10;;;29.00;30.00;;;;;;5076309;28;20105;-81
2021/04/19 12:12:40;;;;;;;4.78;3.70;;;29.10;30.00;;;;;;5078139;28;20446;-82
2021/04/19 12:15:07;;;;;;;4.35;3.85;;;29.30;29.80;;;;;;5078902;28;20032;-82
2021/04/19 12:17:32;;;;;;;6.15;3.95;;;29.50;29.70;;;;;;5074113;28;20032;-80
2021/04/19 12:19:58;;;;;;;6.35;4.10;;;29.70;29.80;;;;;;5075635;28;20040;-82
2021/04/19 12:22:24;;;;;;;5.75;4.43;;;30.00;29.70;;;;;;5075045;28;20454;-81
2021/04/19 12:24:50;;;;;;;4.20;3.90;;;30.60;29.80;;;;;;5075460;28;20020;-82
2021/04/19 12:27:16;;;;;;;4.07;3.67;;;31.30;29.60;;;;;;5074930;28;20036;-82
2021/04/19 12:29:41;;;;;;;6.95;4.57;;;32.10;29.30;;;;;;5074526;28;20021;-84
2021/04/19 12:32:07;;;;;;;8.13;4.70;;;32.70;29.00;;;;;;5074817;28;20032;-82
2021/04/19 12:34:33;;;;;;;6.15;4.90;;;33.30;28.80;;;;;;5074900;28;20051;-82
2021/04/19 12:36:58;;;;;;;5.68;4.65;;;33.80;28.50;;;;;;5073865;28;20032;-84
2021/04/19 12:39:24;;;;;;;6.63;4.72;;;34.30;28.10;;;;;;5074930;28;20039;-81
2021/04/19 12:41:50;;;;;;;4.80;4.10;;;34.50;27.80;;;;;;5075252;28;20108;-83
2021/04/19 12:44:16;;;;;;;6.45;4.35;;;34.80;27.70;;;;;;5074977;28;20074;-80
2021/04/19 12:46:43;;;;;;;7.85;4.28;;;35.10;27.40;;;;;;5074618;28;20032;-82
2021/04/19 12:49:09;;;;;;;6.53;4.38;;;35.10;27.10;;;;;;5074983;28;20145;-81
2021/04/19 12:51:34;;;;;;;11.63;6.38;;;35.10;27.10;;;;;;5074273;28;20378;-80
2021/04/19 12:54:00;;;;;;;10.35;5.68;;;35.30;27.10;;;;;;5074454;28;20020;-81
2021/04/19 12:56:27;;;;;;;34.13;6.78;;;34.70;26.80;;;;;;5074516;28;20031;-83
2021/04/19 12:58:54;;;;;;;14.63;5.20;;;33.60;26.90;;;;;;5074300;28;20508;-81
2021/04/19 13:01:19;;;;;;;16.75;5.95;;;32.30;27.20;;;;;;5073278;28;20078;-81
2021/04/19 13:03:45;;;;;;;11.98;4.80;;;31.10;27.70;;;;;;5074881;28;20059;-82